Weather at Munich Airport

Public forecast

Using degrees Celsius for public forecast. Weather courtesy of forecast.io.

Current aviation weather report (METAR) for Munich Airport

Retrieved 2021/03/08 07:20 UTC (22 minutes ago):

EDDM 080720Z VRB02KT CAVOK M01/M04 Q1019 NOSIG

Aviation forecast (TAF) for Munich Airport

Retrieved 2021/03/08 06:27 UTC (1 hour ago):

TAF EDDM 080500Z 0806/0912 VRB03KT CAVOK BECMG 0812/0814 03005KT